createdAt,value
2023-03-21T00:01:53.648Z,27.45
2023-03-21T00:04:22.063Z,25.65
2023-03-21T00:06:50.771Z,23.45
2023-03-21T00:09:19.106Z,24.60
2023-03-21T00:11:48.398Z,26.23
2023-03-21T00:14:20.249Z,26.45
2023-03-21T00:16:51.060Z,26.23
2023-03-21T00:19:22.004Z,35.03
2023-03-21T00:22:06.426Z,26.80
2023-03-21T00:24:36.027Z,27.13
2023-03-21T00:27:45.287Z,30.48
2023-03-21T00:29:53.197Z,26.58
2023-03-21T00:32:22.946Z,26.33
2023-03-21T00:35:16.357Z,26.10
2023-03-21T00:37:41.210Z,24.80
2023-03-21T00:40:28.065Z,25.70
2023-03-21T00:43:01.145Z,25.38
2023-03-21T00:45:29.298Z,26.67
2023-03-21T00:47:57.627Z,23.35
2023-03-21T00:50:27.795Z,24.80
2023-03-21T00:52:56.611Z,25.13
2023-03-21T00:55:26.791Z,22.38
2023-03-21T00:58:01.550Z,22.70
2023-03-21T01:00:31.269Z,23.70
2023-03-21T01:03:17.728Z,21.08
2023-03-21T01:06:13.329Z,24.52
2023-03-21T01:08:52.318Z,30.55
2023-03-21T01:11:24.200Z,25.75
2023-03-21T01:13:57.910Z,21.48
2023-03-21T01:16:30.375Z,20.75
2023-03-21T01:18:59.656Z,20.77
2023-03-21T01:21:29.300Z,20.60
2023-03-21T01:23:57.501Z,19.80
2023-03-21T01:26:25.801Z,22.75
2023-03-21T01:28:54.090Z,22.52
2023-03-21T01:31:22.329Z,23.00
2023-03-21T01:33:51.201Z,26.05
2023-03-21T01:36:23.508Z,24.50
2023-03-21T01:38:56.154Z,20.48
2023-03-21T01:41:41.657Z,21.52
2023-03-21T01:44:19.685Z,24.50
2023-03-21T01:47:09.684Z,19.77
2023-03-21T01:49:50.589Z,22.88
2023-03-21T01:52:36.571Z,18.27
2023-03-21T01:55:13.507Z,21.25
2023-03-21T01:58:07.166Z,19.90
2023-03-21T02:01:15.982Z,21.80
2023-03-21T02:03:51.415Z,19.92
2023-03-21T02:06:43.818Z,18.17
2023-03-21T02:09:27.339Z,19.92
2023-03-21T02:11:57.229Z,19.88
2023-03-21T02:14:34.455Z,17.65
2023-03-21T02:17:13.918Z,17.98
2023-03-21T02:20:22.166Z,16.85
2023-03-21T02:23:14.865Z,19.58
2023-03-21T02:26:01.406Z,18.25
2023-03-21T02:28:36.330Z,19.92
2023-03-21T02:31:26.609Z,19.08
2023-03-21T02:34:26.134Z,20.45
2023-03-21T02:37:04.591Z,20.05
2023-03-21T02:39:43.862Z,21.00
2023-03-21T02:42:18.817Z,18.40
2023-03-21T02:44:54.104Z,20.80
2023-03-21T02:47:27.645Z,21.85
2023-03-21T02:50:00.654Z,23.30
2023-03-21T02:52:38.991Z,23.55
2023-03-21T02:55:15.613Z,24.83
2023-03-21T02:58:06.848Z,22.77
2023-03-21T03:00:42.975Z,27.33
2023-03-21T03:03:20.956Z,24.60
2023-03-21T03:06:03.785Z,26.77
2023-03-21T03:08:56.387Z,27.55
2023-03-21T03:11:32.659Z,22.40
2023-03-21T03:14:38.554Z,21.88
2023-03-21T03:17:19.463Z,18.50
2023-03-21T03:20:15.628Z,22.73
2023-03-21T03:22:56.179Z,19.17
2023-03-21T03:25:42.000Z,19.58
2023-03-21T03:28:18.919Z,22.95
2023-03-21T03:31:05.438Z,20.65
2023-03-21T03:33:45.019Z,19.63
2023-03-21T03:36:33.545Z,21.70
2023-03-21T03:39:12.275Z,20.55
2023-03-21T03:42:15.482Z,20.38
2023-03-21T03:44:42.381Z,18.65
2023-03-21T03:47:22.862Z,19.33
2023-03-21T03:50:04.615Z,18.67
2023-03-21T03:52:50.086Z,19.02
2023-03-21T03:55:28.245Z,19.90
2023-03-21T03:58:04.673Z,24.17
2023-03-21T04:00:35.542Z,22.08
2023-03-21T04:03:04.029Z,21.42
2023-03-21T04:05:32.592Z,17.63
2023-03-21T04:08:00.947Z,19.55
2023-03-21T04:10:36.843Z,19.08
2023-03-21T04:13:06.665Z,17.35
2023-03-21T04:15:45.563Z,22.55
2023-03-21T04:18:17.231Z,17.52
2023-03-21T04:20:48.549Z,23.27
2023-03-21T04:23:18.995Z,21.58
2023-03-21T04:25:56.218Z,24.88
2023-03-21T04:28:29.099Z,27.67
2023-03-21T04:31:24.526Z,20.80
2023-03-21T04:33:57.001Z,25.60
2023-03-21T04:36:33.368Z,18.45
2023-03-21T04:39:04.732Z,17.77
2023-03-21T04:41:33.674Z,24.75
2023-03-21T04:44:03.560Z,19.88
2023-03-21T04:46:31.845Z,19.48
2023-03-21T04:48:59.993Z,18.90
2023-03-21T04:51:28.510Z,21.65
2023-03-21T04:53:57.674Z,21.17
2023-03-21T04:56:32.141Z,20.95
2023-03-21T04:59:01.859Z,21.75
2023-03-21T05:01:31.722Z,18.67
2023-03-21T05:04:00.815Z,25.48
2023-03-21T05:06:29.639Z,28.75
2023-03-21T05:09:00.211Z,19.75
2023-03-21T05:11:30.913Z,25.08
2023-03-21T05:13:59.901Z,25.75
2023-03-21T05:16:30.875Z,26.13
2023-03-21T05:19:04.103Z,28.70
2023-03-21T05:21:41.378Z,28.15
2023-03-21T05:24:16.444Z,25.98
2023-03-21T05:26:50.510Z,26.10
2023-03-21T05:29:21.812Z,22.85
2023-03-21T05:31:59.110Z,23.38
2023-03-21T05:34:28.998Z,27.13
2023-03-21T05:36:57.442Z,25.95
2023-03-21T05:39:29.266Z,24.10
2023-03-21T05:42:08.718Z,23.58
2023-03-21T05:44:37.663Z,17.55
2023-03-21T05:47:09.486Z,18.83
2023-03-21T05:49:44.501Z,30.38
2023-03-21T05:52:13.187Z,23.88
2023-03-21T05:54:41.973Z,19.75
2023-03-21T05:57:10.648Z,23.30
2023-03-21T05:59:57.742Z,21.00
2023-03-21T06:02:26.082Z,26.48
2023-03-21T06:04:59.664Z,19.63
2023-03-21T06:07:28.139Z,17.00
2023-03-21T06:09:56.868Z,23.30
2023-03-21T06:12:25.503Z,18.63
2023-03-21T06:15:22.495Z,21.92
2023-03-21T06:18:11.476Z,18.70
2023-03-21T06:20:43.052Z,21.98
2023-03-21T06:23:13.546Z,20.30
2023-03-21T06:25:42.001Z,22.70
2023-03-21T06:28:10.320Z,23.52
2023-03-21T06:30:41.852Z,18.88
2023-03-21T06:33:23.095Z,20.60
2023-03-21T06:35:57.103Z,22.50
2023-03-21T06:38:26.200Z,22.10
2023-03-21T06:40:55.137Z,23.50
2023-03-21T06:43:25.783Z,17.15
2023-03-21T06:45:54.270Z,22.45
2023-03-21T06:48:22.680Z,24.45
2023-03-21T06:50:52.599Z,24.20
2023-03-21T06:53:27.487Z,22.63
2023-03-21T06:56:16.554Z,25.77
2023-03-21T06:58:46.752Z,37.67
2023-03-21T07:01:30.651Z,25.33
2023-03-21T07:04:06.428Z,29.42
2023-03-21T07:06:36.090Z,26.73
2023-03-21T07:09:07.164Z,23.95
2023-03-21T07:11:37.034Z,28.95
2023-03-21T07:14:06.795Z,21.92
2023-03-21T07:16:35.157Z,22.30
2023-03-21T07:19:03.365Z,21.38
2023-03-21T07:21:32.440Z,21.73
2023-03-21T07:24:01.223Z,24.35
2023-03-21T07:26:30.908Z,26.13
2023-03-21T07:29:00.129Z,18.90
2023-03-21T07:31:29.576Z,24.08
2023-03-21T07:33:57.964Z,17.42
2023-03-21T07:36:26.517Z,20.48
2023-03-21T07:38:54.720Z,23.73
2023-03-21T07:41:25.400Z,23.80
2023-03-21T07:43:55.107Z,18.17
2023-03-21T07:46:23.313Z,21.80
2023-03-21T07:48:51.607Z,18.57
2023-03-21T07:51:19.911Z,20.57
2023-03-21T07:53:48.797Z,20.27
2023-03-21T07:56:17.185Z,20.07
2023-03-21T07:58:45.396Z,21.47
2023-03-21T08:01:15.077Z,18.40
2023-03-21T08:03:43.503Z,24.53
2023-03-21T08:06:12.430Z,20.03
2023-03-21T08:08:40.714Z,19.80
2023-03-21T08:11:09.348Z,19.80
2023-03-21T08:13:37.499Z,20.33
2023-03-21T08:16:06.481Z,17.80
2023-03-21T08:18:36.053Z,18.67
2023-03-21T08:21:04.495Z,18.93
2023-03-21T08:23:32.641Z,16.83
2023-03-21T08:26:01.583Z,17.40
2023-03-21T08:28:30.350Z,16.97
2023-03-21T08:30:58.738Z,24.27
2023-03-21T08:33:27.546Z,21.73
2023-03-21T08:36:00.530Z,17.37
2023-03-21T08:38:29.860Z,17.30
2023-03-21T08:41:00.202Z,16.67
2023-03-21T08:43:28.606Z,20.10
2023-03-21T08:45:57.142Z,17.67
2023-03-21T08:48:25.478Z,19.37
2023-03-21T08:50:53.778Z,17.47
2023-03-21T08:53:23.493Z,18.60
2023-03-21T08:55:51.680Z,19.60
2023-03-21T08:58:19.919Z,22.17
2023-03-21T09:00:48.220Z,25.50
2023-03-21T09:03:16.787Z,17.53
2023-03-21T09:05:45.551Z,21.13
2023-03-21T09:08:14.151Z,22.63
2023-03-21T09:10:43.892Z,20.23
2023-03-21T09:13:12.122Z,19.80
2023-03-21T09:15:40.640Z,18.00
2023-03-21T09:18:15.180Z,17.97
2023-03-21T09:20:43.976Z,18.60
2023-03-21T09:23:13.473Z,18.80
2023-03-21T09:25:43.460Z,17.80
2023-03-21T09:28:13.216Z,19.07
2023-03-21T09:30:41.672Z,21.33
2023-03-21T09:33:19.277Z,16.50
2023-03-21T09:35:48.658Z,18.67
2023-03-21T09:38:17.816Z,18.93
2023-03-21T09:41:01.026Z,16.93
2023-03-21T09:43:41.468Z,17.43
2023-03-21T09:46:15.466Z,27.03
2023-03-21T09:48:57.104Z,20.83
2023-03-21T09:51:28.752Z,19.43
2023-03-21T09:54:00.893Z,18.30
2023-03-21T09:56:31.340Z,18.43
2023-03-21T09:59:01.716Z,16.80
2023-03-21T10:01:33.011Z,20.10
2023-03-21T10:04:04.817Z,18.83
2023-03-21T10:06:35.866Z,20.97
2023-03-21T10:09:09.232Z,18.77
2023-03-21T10:11:44.991Z,16.63
2023-03-21T10:14:19.853Z,25.00
2023-03-21T10:16:51.004Z,19.50
2023-03-21T10:19:20.883Z,17.27
2023-03-21T10:22:02.685Z,14.70
2023-03-21T10:24:34.303Z,14.93
2023-03-21T10:27:05.567Z,17.67
2023-03-21T10:29:39.753Z,16.63
2023-03-21T10:32:11.135Z,17.07
2023-03-21T10:34:43.773Z,16.30
2023-03-21T10:37:13.711Z,10.93
2023-03-21T10:39:43.792Z,11.47
2023-03-21T10:42:21.548Z,11.60
2023-03-21T10:44:51.788Z,11.73
2023-03-21T10:47:26.013Z,14.17
2023-03-21T10:50:11.167Z,13.67
2023-03-21T10:52:46.517Z,12.07
2023-03-21T10:55:24.388Z,13.03
2023-03-21T10:58:00.786Z,12.20
2023-03-21T11:00:31.544Z,13.87
2023-03-21T11:03:00.733Z,14.10
2023-03-21T11:05:35.978Z,13.43
2023-03-21T11:08:08.034Z,12.40
2023-03-21T11:10:52.404Z,12.93
2023-03-21T11:13:26.853Z,12.37
2023-03-21T11:15:59.328Z,12.20
2023-03-21T11:18:33.204Z,12.37
2023-03-21T11:21:06.291Z,11.73
2023-03-21T11:23:39.900Z,13.97
2023-03-21T11:26:12.678Z,10.93
2023-03-21T11:28:44.876Z,9.03
2023-03-21T11:31:13.709Z,10.77
2023-03-21T11:33:48.948Z,11.57
2023-03-21T11:36:35.179Z,15.00
2023-03-21T11:39:15.165Z,11.40
2023-03-21T11:41:48.484Z,10.27
2023-03-21T11:44:34.600Z,11.50
2023-03-21T11:47:03.581Z,10.90
2023-03-21T11:49:32.245Z,10.70
2023-03-21T11:52:08.792Z,10.60
2023-03-21T11:54:48.806Z,9.57
2023-03-21T11:57:30.909Z,8.77
2023-03-21T12:00:14.375Z,10.00
2023-03-21T12:03:05.014Z,9.00
2023-03-21T12:05:36.894Z,9.30
2023-03-21T12:08:21.182Z,15.53
2023-03-21T12:10:55.965Z,9.20
2023-03-21T12:13:37.661Z,10.00
2023-03-21T12:16:26.407Z,10.67
2023-03-21T12:19:31.750Z,10.60
2023-03-21T12:22:09.039Z,8.30
2023-03-21T12:24:45.354Z,8.80
2023-03-21T12:27:24.695Z,9.27
2023-03-21T12:30:14.785Z,9.90
2023-03-21T12:32:57.906Z,7.27
2023-03-21T12:35:37.625Z,8.37
2023-03-21T12:38:17.196Z,9.07
2023-03-21T12:41:06.043Z,8.83
2023-03-21T12:43:45.695Z,9.50
2023-03-21T12:46:20.408Z,8.63
2023-03-21T12:48:52.943Z,7.17
2023-03-21T12:51:25.271Z,7.57
2023-03-21T12:54:01.085Z,7.30
2023-03-21T12:56:33.066Z,8.63
2023-03-21T12:59:10.629Z,7.43
2023-03-21T13:01:41.295Z,10.63
2023-03-21T13:04:36.124Z,7.73
2023-03-21T13:07:08.943Z,7.70
2023-03-21T13:09:38.965Z,8.50
2023-03-21T13:12:23.023Z,8.53
2023-03-21T13:15:07.863Z,8.70
2023-03-21T13:17:44.955Z,8.93
2023-03-21T13:20:23.680Z,9.07
2023-03-21T13:22:51.967Z,8.63
2023-03-21T13:25:22.864Z,8.30
2023-03-21T13:27:56.213Z,8.60
2023-03-21T13:30:27.282Z,8.90
2023-03-21T13:33:05.727Z,10.63
2023-03-21T13:35:42.536Z,7.97
2023-03-21T13:38:16.536Z,8.03
2023-03-21T13:40:49.660Z,8.60
2023-03-21T13:43:36.724Z,7.83
2023-03-21T13:46:10.476Z,8.57
2023-03-21T13:49:01.455Z,8.67
2023-03-21T13:51:51.863Z,8.60
2023-03-21T13:54:29.718Z,8.90
2023-03-21T13:57:01.471Z,9.63
2023-03-21T13:59:45.284Z,10.17
2023-03-21T14:02:31.450Z,9.80
2023-03-21T14:05:06.814Z,8.60
2023-03-21T14:07:42.186Z,9.00
2023-03-21T14:10:20.336Z,8.37
2023-03-21T14:12:49.730Z,8.70
2023-03-21T14:15:22.904Z,8.13
2023-03-21T14:17:53.983Z,8.60
2023-03-21T14:20:25.328Z,10.93
2023-03-21T14:22:56.288Z,9.17
2023-03-21T14:25:31.328Z,8.80
2023-03-21T14:28:03.930Z,8.40
2023-03-21T14:30:35.504Z,7.90
2023-03-21T14:33:09.166Z,8.03
2023-03-21T14:35:37.640Z,10.03
2023-03-21T14:38:09.427Z,8.20
2023-03-21T14:40:37.908Z,8.30
2023-03-21T14:43:07.797Z,8.50
2023-03-21T14:45:38.431Z,9.83
2023-03-21T14:48:09.090Z,10.67
2023-03-21T14:50:42.200Z,12.60
2023-03-21T14:53:17.764Z,11.70
2023-03-21T14:55:48.999Z,17.37
2023-03-21T14:58:19.283Z,11.10
2023-03-21T15:00:50.828Z,12.27
2023-03-21T15:03:21.117Z,8.80
2023-03-21T15:05:49.610Z,9.40
2023-03-21T15:08:21.764Z,10.20
2023-03-21T15:11:06.339Z,9.93
2023-03-21T15:13:38.178Z,11.87
2023-03-21T15:16:07.992Z,9.97
2023-03-21T15:18:38.803Z,9.67
2023-03-21T15:21:11.242Z,9.63
2023-03-21T15:23:43.325Z,9.57
2023-03-21T15:26:16.624Z,10.30
2023-03-21T15:28:47.294Z,11.93
2023-03-21T15:31:18.665Z,10.80
2023-03-21T15:33:48.798Z,11.30
2023-03-21T15:36:21.014Z,12.38
2023-03-21T15:38:51.277Z,13.38
2023-03-21T15:41:28.850Z,13.10
2023-03-21T15:44:04.096Z,10.18
2023-03-21T15:46:40.165Z,10.90
2023-03-21T15:49:10.180Z,13.82
2023-03-21T15:51:38.545Z,12.85
2023-03-21T15:54:16.204Z,14.27
2023-03-21T15:56:46.004Z,13.80
2023-03-21T15:59:18.185Z,13.02
2023-03-21T16:01:49.059Z,12.45
2023-03-21T16:04:18.676Z,15.35
2023-03-21T16:06:57.491Z,19.00
2023-03-21T16:09:27.336Z,15.05
2023-03-21T16:11:57.127Z,20.92
2023-03-21T16:14:28.000Z,16.17
2023-03-21T16:16:57.375Z,16.60
2023-03-21T16:19:27.713Z,18.55
2023-03-21T16:21:55.975Z,20.13
2023-03-21T16:24:24.162Z,15.38
2023-03-21T16:26:55.132Z,15.73
2023-03-21T16:29:23.421Z,14.98
2023-03-21T16:31:51.666Z,14.95
2023-03-21T16:34:19.934Z,15.65
2023-03-21T16:36:48.184Z,16.83
2023-03-21T16:39:19.057Z,17.08
2023-03-21T16:41:47.907Z,16.42
2023-03-21T16:44:17.581Z,17.77
2023-03-21T16:46:47.217Z,20.67
2023-03-21T16:49:20.613Z,20.60
2023-03-21T16:51:49.015Z,22.17
2023-03-21T16:54:17.638Z,19.60
2023-03-21T16:56:48.514Z,19.45
2023-03-21T16:59:18.173Z,23.08
2023-03-21T17:01:48.138Z,20.55
2023-03-21T17:04:18.314Z,24.88
2023-03-21T17:06:49.416Z,23.30
2023-03-21T17:09:19.804Z,21.85
2023-03-21T17:11:48.343Z,22.33
2023-03-21T17:14:18.824Z,22.88
2023-03-21T17:16:47.302Z,22.17
2023-03-21T17:19:17.550Z,22.55
2023-03-21T17:21:46.558Z,26.42
2023-03-21T17:24:14.907Z,26.88
2023-03-21T17:26:43.140Z,28.50
2023-03-21T17:29:13.303Z,27.45
2023-03-21T17:31:47.247Z,38.85
2023-03-21T17:34:15.686Z,34.78
2023-03-21T17:36:46.342Z,36.72
2023-03-21T17:39:19.515Z,36.10
2023-03-21T17:41:47.686Z,87.18
2023-03-21T17:44:15.969Z,54.35
2023-03-21T17:46:46.446Z,39.20
2023-03-21T17:49:16.990Z,33.13
2023-03-21T17:51:47.150Z,43.53
2023-03-21T17:54:15.639Z,35.95
2023-03-21T17:56:44.256Z,38.17
2023-03-21T17:59:14.519Z,35.78
2023-03-21T18:01:43.134Z,35.80
2023-03-21T18:04:12.781Z,43.40
2023-03-21T18:06:42.223Z,38.28
2023-03-21T18:09:12.345Z,32.25
2023-03-21T18:11:41.577Z,37.28
2023-03-21T18:14:17.566Z,35.58
2023-03-21T18:16:47.528Z,35.10
2023-03-21T18:19:17.276Z,34.47
2023-03-21T18:21:46.080Z,34.03
2023-03-21T18:24:14.739Z,31.45
2023-03-21T18:26:43.430Z,33.60
2023-03-21T18:32:07.359Z,32.75
2023-03-21T18:34:39.528Z,34.20
2023-03-21T18:37:09.051Z,36.92
2023-03-21T18:39:38.998Z,37.70
2023-03-21T18:42:10.815Z,36.05
2023-03-21T18:44:45.669Z,37.97
2023-03-21T18:47:14.511Z,27.95
2023-03-21T18:52:33.112Z,28.13
2023-03-21T18:55:01.399Z,29.08
2023-03-21T18:57:38.907Z,25.48
2023-03-21T19:00:13.053Z,27.30
2023-03-21T19:02:46.247Z,26.98
2023-03-21T19:05:18.758Z,30.73
2023-03-21T19:07:48.070Z,29.42
2023-03-21T19:10:19.592Z,28.52
2023-03-21T19:12:49.182Z,26.38
2023-03-21T19:15:19.685Z,29.70
2023-03-21T19:20:38.834Z,28.42
2023-03-21T19:23:09.346Z,28.98
2023-03-21T19:25:38.353Z,36.78
2023-03-21T19:28:06.925Z,38.75
2023-03-21T19:30:35.233Z,36.13
2023-03-21T19:33:03.514Z,39.88
2023-03-21T19:35:32.107Z,55.95
2023-03-21T19:38:01.763Z,39.78
2023-03-21T19:40:30.410Z,35.90
2023-03-21T19:42:58.849Z,35.55
2023-03-21T19:45:27.262Z,32.05
2023-03-21T19:47:55.625Z,36.58
2023-03-21T19:50:57.947Z,36.70
2023-03-21T19:53:18.525Z,31.98
2023-03-21T19:55:51.376Z,28.80
2023-03-21T19:58:22.693Z,31.13
2023-03-21T20:00:51.695Z,40.63
2023-03-21T20:03:22.299Z,38.05
2023-03-21T20:05:50.806Z,41.33
2023-03-21T20:08:20.687Z,33.38
2023-03-21T20:10:49.094Z,34.70
2023-03-21T20:13:17.313Z,33.83
2023-03-21T20:15:48.200Z,35.75
2023-03-21T20:18:16.741Z,45.33
2023-03-21T20:20:44.960Z,34.45
2023-03-21T20:23:15.864Z,34.65
2023-03-21T20:25:46.121Z,36.08
2023-03-21T20:28:22.610Z,32.75
2023-03-21T20:30:56.937Z,30.08
2023-03-21T20:33:25.466Z,28.98
2023-03-21T20:36:37.439Z,30.70
2023-03-21T20:38:47.547Z,28.00
2023-03-21T20:41:17.559Z,33.15
2023-03-21T20:46:36.482Z,30.23
2023-03-21T20:49:07.386Z,30.63
2023-03-21T20:54:24.635Z,29.52
2023-03-21T20:56:55.319Z,29.70
2023-03-21T20:59:27.639Z,31.40
2023-03-21T21:01:57.388Z,29.90
2023-03-21T21:04:46.676Z,33.25
2023-03-21T21:07:17.429Z,34.80
2023-03-21T21:09:46.699Z,33.38
2023-03-21T21:12:17.552Z,31.75
2023-03-21T21:14:45.759Z,34.60
2023-03-21T21:20:02.456Z,31.92
2023-03-21T21:22:31.566Z,33.05
2023-03-21T21:24:59.996Z,32.78
2023-03-21T21:27:29.631Z,33.67
2023-03-21T21:29:57.820Z,28.80
2023-03-21T21:32:26.099Z,34.15
2023-03-21T21:34:54.276Z,28.30
2023-03-21T21:37:22.628Z,27.50
2023-03-21T21:39:51.078Z,29.05
2023-03-21T21:42:20.236Z,30.15
2023-03-21T21:44:49.878Z,29.17
2023-03-21T21:47:18.110Z,33.92
2023-03-21T21:49:46.283Z,30.40
2023-03-21T21:52:14.543Z,30.35
2023-03-21T21:54:46.166Z,30.73
2023-03-21T21:57:14.685Z,35.10
2023-03-21T21:59:43.122Z,27.50
2023-03-21T22:02:16.772Z,28.13
2023-03-21T22:04:44.995Z,27.00
2023-03-21T22:07:14.615Z,25.50
2023-03-21T22:09:43.750Z,23.25
2023-03-21T22:12:12.225Z,20.42
2023-03-21T22:14:40.498Z,16.60
2023-03-21T22:17:08.805Z,17.73
2023-03-21T22:19:40.205Z,14.43
2023-03-21T22:22:08.713Z,11.10
2023-03-21T22:24:37.544Z,10.50
2023-03-21T22:27:06.006Z,8.30
2023-03-21T22:29:34.264Z,8.15
2023-03-21T22:32:02.568Z,8.13
2023-03-21T22:34:31.173Z,8.57
2023-03-21T22:37:02.667Z,6.63
2023-03-21T22:39:31.122Z,8.35
2023-03-21T22:42:01.021Z,8.07
2023-03-21T22:44:34.468Z,7.32
2023-03-21T22:47:03.832Z,7.60
2023-03-21T22:49:32.977Z,7.70
2023-03-21T22:52:03.575Z,8.27
2023-03-21T22:54:32.047Z,8.35
2023-03-21T22:57:00.806Z,8.05
2023-03-21T22:59:29.664Z,8.88
2023-03-21T23:01:58.513Z,10.43
2023-03-21T23:04:27.375Z,8.52
2023-03-21T23:06:56.129Z,10.32
2023-03-21T23:09:27.359Z,10.35
2023-03-21T23:11:55.807Z,10.82
2023-03-21T23:14:24.283Z,9.43
2023-03-21T23:16:54.867Z,10.07
2023-03-21T23:19:25.479Z,9.57
2023-03-21T23:21:53.749Z,9.57
2023-03-21T23:24:21.936Z,9.52
2023-03-21T23:26:51.568Z,10.68
2023-03-21T23:29:19.909Z,9.77
2023-03-21T23:31:48.225Z,10.90
2023-03-21T23:34:16.477Z,9.88
2023-03-21T23:36:44.691Z,9.68
2023-03-21T23:39:12.945Z,9.75
2023-03-21T23:41:42.835Z,7.65
2023-03-21T23:44:12.511Z,8.88
2023-03-21T23:46:40.702Z,10.73
2023-03-21T23:49:08.939Z,9.93
2023-03-21T23:51:37.207Z,9.45
2023-03-21T23:54:05.417Z,11.68
2023-03-21T23:56:33.889Z,9.75
2023-03-21T23:59:02.169Z,10.82
